createdAt,value
2018-03-03T00:00:44.603Z,126.85
2018-03-03T00:01:47.895Z,111.88
2018-03-03T00:02:51.906Z,127.40
2018-03-03T00:03:55.130Z,123.30
2018-03-03T00:04:58.360Z,101.05
2018-03-03T00:06:01.573Z,98.15
2018-03-03T00:07:04.806Z,96.45
2018-03-03T00:08:08.835Z,106.07
2018-03-03T00:09:12.151Z,107.65
2018-03-03T00:10:15.394Z,96.95
2018-03-03T00:11:19.358Z,99.70
2018-03-03T00:12:22.621Z,98.45
2018-03-03T00:13:25.843Z,103.75
2018-03-03T00:14:29.863Z,95.85
2018-03-03T00:15:33.070Z,95.55
2018-03-03T00:16:36.314Z,94.72
2018-03-03T00:17:40.300Z,100.78
2018-03-03T00:18:44.296Z,96.95
2018-03-03T00:19:48.292Z,100.18
2018-03-03T00:20:51.575Z,101.82
2018-03-03T00:21:54.806Z,102.43
2018-03-03T00:22:58.092Z,122.75
2018-03-03T00:24:01.331Z,112.20
2018-03-03T00:25:04.647Z,103.38
2018-03-03T00:26:07.893Z,91.40
2018-03-03T00:27:11.137Z,102.43
2018-03-03T00:28:14.426Z,102.87
2018-03-03T00:29:18.478Z,99.82
2018-03-03T00:30:21.704Z,101.12
2018-03-03T00:31:24.952Z,98.40
2018-03-03T00:32:28.954Z,105.30
2018-03-03T00:33:32.265Z,100.15
2018-03-03T00:34:36.050Z,101.10
2018-03-03T00:35:39.387Z,102.22
2018-03-03T00:36:43.353Z,101.18
2018-03-03T00:37:46.562Z,98.45
2018-03-03T00:38:49.784Z,104.45
2018-03-03T00:39:57.222Z,117.62
2018-03-03T00:41:00.457Z,122.43
2018-03-03T00:42:03.733Z,111.88
2018-03-03T00:43:06.958Z,101.72
2018-03-03T00:44:10.188Z,105.05
2018-03-03T00:45:17.313Z,105.63
2018-03-03T00:46:20.543Z,103.60
2018-03-03T00:47:24.552Z,100.82
2018-03-03T00:48:27.776Z,111.97
2018-03-03T00:49:31.006Z,109.40
2018-03-03T00:50:38.394Z,104.55
2018-03-03T00:51:42.386Z,108.87
2018-03-03T00:52:46.399Z,109.35
2018-03-03T00:53:49.628Z,111.10
2018-03-03T00:54:52.867Z,110.85
2018-03-03T00:55:56.923Z,105.30
2018-03-03T00:57:00.174Z,104.60
2018-03-03T00:58:03.403Z,108.15
2018-03-03T00:59:06.624Z,103.28
2018-03-03T01:00:09.876Z,100.03
2018-03-03T01:01:13.195Z,105.97
2018-03-03T01:02:17.204Z,108.18
2018-03-03T01:03:20.417Z,105.72
2018-03-03T01:04:23.649Z,106.60
2018-03-03T01:05:26.921Z,107.18
2018-03-03T01:06:30.920Z,101.95
2018-03-03T01:07:34.926Z,103.45
2018-03-03T01:08:38.925Z,108.00
2018-03-03T01:09:42.917Z,109.32
2018-03-03T01:10:46.941Z,107.12
2018-03-03T01:11:50.926Z,109.10
2018-03-03T01:12:54.951Z,101.57
2018-03-03T01:13:58.951Z,101.97
2018-03-03T01:15:02.259Z,135.32
2018-03-03T01:16:05.489Z,117.93
2018-03-03T01:17:09.482Z,113.88
2018-03-03T01:18:12.705Z,108.95
2018-03-03T01:19:15.935Z,104.97
2018-03-03T01:20:19.154Z,106.55
2018-03-03T01:21:23.133Z,97.70
2018-03-03T01:22:26.379Z,109.15
2018-03-03T01:23:29.610Z,104.10
2018-03-03T01:24:33.597Z,103.97
2018-03-03T01:25:36.849Z,110.57
2018-03-03T01:26:40.075Z,104.12
2018-03-03T01:27:44.056Z,112.10
2018-03-03T01:28:47.304Z,101.70
2018-03-03T01:29:50.554Z,103.87
2018-03-03T01:30:54.558Z,103.12
2018-03-03T01:31:57.793Z,108.90
2018-03-03T01:33:01.043Z,103.60
2018-03-03T01:34:04.295Z,101.68
2018-03-03T01:35:08.293Z,100.10
2018-03-03T01:36:12.309Z,107.78
2018-03-03T01:37:15.573Z,102.00
2018-03-03T01:38:18.789Z,122.85
2018-03-03T01:39:22.126Z,129.00
2018-03-03T01:40:25.421Z,114.10
2018-03-03T01:41:28.652Z,115.60
2018-03-03T01:42:33.428Z,108.03
2018-03-03T01:43:36.698Z,111.95
2018-03-03T01:44:39.960Z,109.05
2018-03-03T01:45:43.193Z,108.07
2018-03-03T01:46:46.449Z,109.37
2018-03-03T01:47:49.696Z,104.22
2018-03-03T01:48:52.907Z,112.00
2018-03-03T01:49:56.153Z,106.07
2018-03-03T01:50:59.417Z,120.15
2018-03-03T01:52:02.649Z,120.78
2018-03-03T01:53:05.865Z,133.32
2018-03-03T01:54:09.943Z,155.73
2018-03-03T01:55:13.179Z,139.43
2018-03-03T01:56:20.012Z,119.15
2018-03-03T01:57:23.265Z,113.70
2018-03-03T01:58:26.517Z,114.62
2018-03-03T01:59:29.780Z,112.75
2018-03-03T02:00:36.862Z,112.70
2018-03-03T02:01:40.115Z,114.22
2018-03-03T02:02:43.327Z,113.68
2018-03-03T02:03:46.560Z,113.07
2018-03-03T02:04:49.844Z,116.57
2018-03-03T02:05:53.067Z,108.20
2018-03-03T02:06:56.307Z,101.07
2018-03-03T02:07:59.542Z,111.10
2018-03-03T02:09:02.780Z,107.87
2018-03-03T02:10:05.999Z,120.20
2018-03-03T02:11:09.235Z,113.60
2018-03-03T02:12:12.462Z,112.78
2018-03-03T02:13:15.716Z,110.65
2018-03-03T02:14:18.954Z,114.97
2018-03-03T02:15:22.232Z,112.88
2018-03-03T02:16:25.454Z,119.55
2018-03-03T02:17:28.689Z,116.20
2018-03-03T02:18:31.968Z,112.00
2018-03-03T02:19:35.224Z,111.37
2018-03-03T02:20:39.224Z,112.90
2018-03-03T02:21:43.226Z,111.55
2018-03-03T02:22:47.229Z,117.65
2018-03-03T02:23:51.227Z,108.72
2018-03-03T02:24:55.229Z,112.40
2018-03-03T02:25:59.228Z,112.80
2018-03-03T02:27:03.213Z,119.55
2018-03-03T02:28:06.433Z,113.97
2018-03-03T02:29:09.674Z,116.95
2018-03-03T02:30:12.886Z,111.62
2018-03-03T02:31:16.927Z,115.05
2018-03-03T02:32:20.191Z,116.72
2018-03-03T02:33:23.495Z,114.07
2018-03-03T02:34:27.545Z,114.72
2018-03-03T02:35:30.836Z,116.95
2018-03-03T02:36:34.841Z,113.15
2018-03-03T02:37:38.881Z,114.72
2018-03-03T02:38:42.099Z,103.47
2018-03-03T02:39:45.313Z,115.28
2018-03-03T02:40:48.569Z,108.68
2018-03-03T02:41:51.792Z,113.72
2018-03-03T02:42:55.760Z,115.62
2018-03-03T02:43:58.989Z,114.47
2018-03-03T02:45:02.219Z,106.20
2018-03-03T02:46:05.508Z,111.65
2018-03-03T02:47:08.734Z,109.60
2018-03-03T02:48:11.970Z,103.85
2018-03-03T02:49:15.188Z,107.70
2018-03-03T02:50:18.434Z,106.53
2018-03-03T02:51:21.662Z,114.90
2018-03-03T02:52:24.902Z,102.40
2018-03-03T02:53:28.818Z,115.90
2018-03-03T02:54:32.825Z,111.35
2018-03-03T02:55:36.822Z,104.65
2018-03-03T02:56:40.951Z,108.53
2018-03-03T02:57:44.170Z,108.00
2018-03-03T02:58:47.394Z,107.55
2018-03-03T02:59:50.722Z,114.65
2018-03-03T03:00:53.956Z,122.47
2018-03-03T03:01:57.947Z,109.37
2018-03-03T03:03:01.975Z,115.28
2018-03-03T03:04:05.214Z,110.30
2018-03-03T03:05:08.482Z,110.93
2018-03-03T03:06:11.751Z,106.00
2018-03-03T03:07:14.992Z,112.07
2018-03-03T03:08:19.059Z,105.90
2018-03-03T03:09:22.294Z,115.57
2018-03-03T03:10:25.524Z,102.78
2018-03-03T03:11:28.763Z,105.90
2018-03-03T03:12:32.004Z,112.18
2018-03-03T03:13:35.226Z,107.45
2018-03-03T03:14:38.466Z,107.60
2018-03-03T03:15:41.746Z,109.40
2018-03-03T03:16:44.976Z,112.90
2018-03-03T03:17:48.213Z,112.43
2018-03-03T03:18:51.499Z,111.68
2018-03-03T03:19:54.740Z,101.22
2018-03-03T03:20:57.982Z,105.35
2018-03-03T03:22:02.050Z,103.25
2018-03-03T03:23:05.277Z,112.82
2018-03-03T03:24:09.293Z,115.82
2018-03-03T03:25:12.574Z,108.57
2018-03-03T03:26:15.917Z,110.37
2018-03-03T03:27:19.165Z,100.70
2018-03-03T03:28:22.404Z,109.95
2018-03-03T03:29:26.493Z,112.00
2018-03-03T03:30:29.946Z,113.00
2018-03-03T03:31:33.212Z,111.35
2018-03-03T03:32:36.436Z,109.10
2018-03-03T03:33:39.670Z,111.82
2018-03-03T03:34:42.905Z,108.00
2018-03-03T03:35:46.151Z,115.28
2018-03-03T03:36:49.376Z,112.93
2018-03-03T03:37:52.655Z,109.47
2018-03-03T03:38:55.903Z,112.95
2018-03-03T03:39:59.120Z,102.93
2018-03-03T03:41:02.381Z,105.87
2018-03-03T03:42:05.615Z,106.37
2018-03-03T03:43:09.607Z,111.78
2018-03-03T03:44:13.621Z,101.00
2018-03-03T03:45:17.604Z,107.53
2018-03-03T03:46:21.610Z,108.00
2018-03-03T03:47:25.607Z,107.15
2018-03-03T03:48:28.837Z,107.15
2018-03-03T03:49:32.072Z,102.28
2018-03-03T03:50:36.056Z,105.75
2018-03-03T03:51:39.287Z,102.38
2018-03-03T03:52:42.532Z,107.35
2018-03-03T03:53:46.531Z,102.70
2018-03-03T03:54:49.769Z,102.05
2018-03-03T03:55:52.987Z,102.22
2018-03-03T03:56:56.232Z,104.15
2018-03-03T03:57:59.461Z,100.87
2018-03-03T03:59:02.697Z,107.18
2018-03-03T04:00:05.943Z,98.95
2018-03-03T04:01:10.016Z,104.05
2018-03-03T04:02:13.263Z,101.82
2018-03-03T04:03:16.497Z,99.95
2018-03-03T04:04:19.764Z,99.93
2018-03-03T04:05:23.011Z,107.12
2018-03-03T04:06:26.231Z,100.93
2018-03-03T04:07:29.457Z,106.18
2018-03-03T04:08:32.688Z,97.57
2018-03-03T04:09:35.918Z,95.18
2018-03-03T04:10:39.900Z,107.57
2018-03-03T04:11:43.916Z,96.63
2018-03-03T04:12:47.896Z,102.80
2018-03-03T04:13:51.930Z,99.00
2018-03-03T04:14:55.151Z,105.30
2018-03-03T04:15:58.381Z,100.15
2018-03-03T04:17:02.458Z,105.82
2018-03-03T04:18:05.725Z,102.22
2018-03-03T04:19:08.948Z,103.60
2018-03-03T04:20:12.971Z,96.00
2018-03-03T04:21:16.254Z,96.85
2018-03-03T04:22:19.485Z,101.10
2018-03-03T04:23:22.733Z,100.45
2018-03-03T04:24:26.025Z,101.90
2018-03-03T04:25:29.248Z,101.05
2018-03-03T04:26:32.475Z,96.10
2018-03-03T04:27:35.721Z,104.35
2018-03-03T04:28:39.764Z,106.85
2018-03-03T04:29:42.990Z,103.25
2018-03-03T04:30:46.232Z,102.68
2018-03-03T04:31:49.596Z,101.62
2018-03-03T04:32:53.614Z,105.30
2018-03-03T04:33:56.829Z,110.22
2018-03-03T04:35:00.070Z,102.28
2018-03-03T04:36:03.328Z,102.50
2018-03-03T04:37:06.582Z,104.55
2018-03-03T04:38:09.818Z,98.15
2018-03-03T04:39:13.112Z,102.62
2018-03-03T04:40:16.336Z,102.70
2018-03-03T04:41:25.213Z,101.68
2018-03-03T04:42:28.442Z,104.72
2018-03-03T04:43:31.669Z,101.50
2018-03-03T04:44:34.880Z,97.95
2018-03-03T04:45:38.108Z,107.70
2018-03-03T04:46:42.110Z,108.37
2018-03-03T04:47:46.095Z,107.63
2018-03-03T04:48:49.336Z,104.43
2018-03-03T04:49:52.552Z,107.15
2018-03-03T04:50:55.789Z,99.53
2018-03-03T04:51:59.019Z,103.82
2018-03-03T04:53:02.245Z,105.15
2018-03-03T04:54:05.482Z,105.55
2018-03-03T04:55:08.718Z,98.87
2018-03-03T04:56:11.953Z,101.85
2018-03-03T04:57:15.184Z,105.55
2018-03-03T04:58:28.325Z,105.15
2018-03-03T04:59:37.215Z,111.62
2018-03-03T05:00:43.211Z,96.12
2018-03-03T05:01:47.010Z,101.35
2018-03-03T05:02:55.778Z,106.97
2018-03-03T05:04:04.539Z,96.18
2018-03-03T05:05:14.080Z,102.55
2018-03-03T05:06:18.130Z,95.35
2018-03-03T05:07:22.261Z,102.10
2018-03-03T05:08:31.185Z,97.82
2018-03-03T05:09:34.420Z,106.12
2018-03-03T05:10:38.106Z,109.55
2018-03-03T05:11:41.331Z,96.68
2018-03-03T05:12:44.577Z,98.32
2018-03-03T05:13:49.397Z,104.20
2018-03-03T05:15:09.321Z,105.85
2018-03-03T05:18:00.771Z,100.12
2018-03-03T05:19:09.615Z,105.45
2018-03-03T05:20:18.455Z,103.45
2018-03-03T05:21:27.341Z,99.70
2018-03-03T05:22:36.364Z,90.50
2018-03-03T05:23:45.197Z,95.57
2018-03-03T05:25:03.367Z,106.03
2018-03-03T05:26:13.139Z,97.15
2018-03-03T05:27:31.237Z,98.78
2018-03-03T05:28:44.294Z,100.47
2018-03-03T05:29:48.336Z,96.05
2018-03-03T05:30:57.444Z,102.32
2018-03-03T05:32:06.530Z,91.68
2018-03-03T05:33:16.095Z,97.85
2018-03-03T05:34:37.075Z,94.53
2018-03-03T05:37:20.700Z,98.35
2018-03-03T05:38:29.540Z,101.20
2018-03-03T05:39:38.587Z,102.97
2018-03-03T05:40:48.192Z,95.60
2018-03-03T05:41:57.076Z,99.80
2018-03-03T05:43:05.958Z,93.15
2018-03-03T05:44:26.684Z,99.05
2018-03-03T05:45:48.609Z,94.85
2018-03-03T05:48:50.249Z,99.00
2018-03-03T05:49:59.136Z,93.70
2018-03-03T05:51:22.124Z,88.50
2018-03-03T05:52:42.133Z,92.55
2018-03-03T05:53:46.305Z,85.50
2018-03-03T05:54:55.302Z,100.80
2018-03-03T05:56:04.205Z,103.75
2018-03-03T05:57:22.310Z,93.68
2018-03-03T05:58:43.405Z,96.85
2018-03-03T05:59:52.443Z,96.55
2018-03-03T06:00:57.622Z,96.53
2018-03-03T06:02:15.734Z,94.93
2018-03-03T06:03:24.613Z,94.05
2018-03-03T06:04:31.799Z,93.80
2018-03-03T06:07:26.577Z,93.18
2018-03-03T06:08:35.490Z,95.72
2018-03-03T06:09:53.592Z,94.97
2018-03-03T06:10:57.356Z,95.38
2018-03-03T06:12:01.374Z,99.03
2018-03-03T06:13:04.613Z,98.68
2018-03-03T06:14:07.837Z,97.57
2018-03-03T06:15:11.159Z,91.65
2018-03-03T06:16:14.399Z,95.72
2018-03-03T06:17:17.637Z,94.85
2018-03-03T06:18:20.875Z,92.82
2018-03-03T06:19:27.606Z,95.45
2018-03-03T06:20:31.640Z,91.30
2018-03-03T06:21:34.869Z,96.22
2018-03-03T06:22:38.141Z,97.68
2018-03-03T06:23:41.335Z,90.62
2018-03-03T06:24:44.574Z,86.28
2018-03-03T06:25:47.813Z,96.03
2018-03-03T06:26:51.812Z,92.20
2018-03-03T06:27:55.798Z,97.65
2018-03-03T06:28:59.076Z,91.93
2018-03-03T06:30:02.301Z,93.25
2018-03-03T06:31:05.642Z,90.75
2018-03-03T06:32:08.953Z,88.87
2018-03-03T06:33:12.931Z,88.68
2018-03-03T06:34:16.163Z,95.32
2018-03-03T06:35:19.415Z,91.55
2018-03-03T06:36:22.678Z,93.57
2018-03-03T06:37:25.903Z,96.65
2018-03-03T06:38:29.109Z,97.93
2018-03-03T06:39:33.098Z,89.45
2018-03-03T06:40:37.175Z,91.63
2018-03-03T06:41:40.384Z,94.57
2018-03-03T06:42:44.370Z,90.45
2018-03-03T06:43:47.613Z,96.07
2018-03-03T06:44:50.847Z,90.93
2018-03-03T06:45:54.071Z,96.07
2018-03-03T06:46:57.312Z,91.85
2018-03-03T06:48:00.625Z,89.82
2018-03-03T06:49:03.857Z,92.95
2018-03-03T06:50:07.106Z,94.65
2018-03-03T06:51:10.396Z,99.03
2018-03-03T06:52:13.623Z,93.72
2018-03-03T06:53:16.856Z,85.78
2018-03-03T06:54:20.108Z,91.40
2018-03-03T06:55:24.092Z,95.60
2018-03-03T06:56:27.399Z,91.07
2018-03-03T06:57:30.649Z,93.05
2018-03-03T06:58:33.890Z,96.28
2018-03-03T06:59:37.134Z,93.47
2018-03-03T07:00:41.164Z,93.60
2018-03-03T07:01:45.117Z,95.75
2018-03-03T07:02:48.458Z,94.53
2018-03-03T07:03:51.676Z,94.68
2018-03-03T07:04:54.923Z,92.93
2018-03-03T07:05:58.184Z,89.93
2018-03-03T07:07:02.158Z,92.95
2018-03-03T07:08:05.402Z,92.50
2018-03-03T07:09:08.638Z,97.62
2018-03-03T07:10:12.636Z,95.25
2018-03-03T07:11:16.632Z,92.37
2018-03-03T07:12:19.893Z,89.50
2018-03-03T07:13:23.389Z,89.65
2018-03-03T07:14:27.209Z,87.30
2018-03-03T07:15:31.192Z,86.47
2018-03-03T07:16:34.469Z,87.00
2018-03-03T07:17:37.806Z,83.00
2018-03-03T07:18:41.058Z,93.35
2018-03-03T07:19:45.069Z,84.43
2018-03-03T07:20:49.045Z,87.45
2018-03-03T07:21:52.281Z,97.07
2018-03-03T07:22:55.532Z,94.25
2018-03-03T07:23:58.760Z,89.50
2018-03-03T07:25:01.999Z,92.00
2018-03-03T07:26:06.035Z,87.55
2018-03-03T07:27:09.304Z,96.07
2018-03-03T07:28:12.564Z,92.30
2018-03-03T07:29:15.881Z,100.60
2018-03-03T07:30:19.117Z,102.93
2018-03-03T07:31:22.362Z,98.85
2018-03-03T07:32:25.626Z,96.30
2018-03-03T07:33:29.003Z,90.32
2018-03-03T07:34:32.307Z,94.72
2018-03-03T07:35:35.595Z,89.13
2018-03-03T07:36:38.813Z,101.00
2018-03-03T07:37:42.050Z,95.38
2018-03-03T07:38:45.272Z,97.60
2018-03-03T07:39:48.563Z,91.93
2018-03-03T07:40:51.857Z,97.43
2018-03-03T07:41:55.908Z,97.65
2018-03-03T07:42:59.171Z,96.75
2018-03-03T07:44:02.452Z,96.93
2018-03-03T07:45:06.471Z,97.93
2018-03-03T07:46:09.696Z,103.60
2018-03-03T07:47:12.928Z,91.82
2018-03-03T07:48:16.168Z,96.57
2018-03-03T07:49:19.387Z,94.68
2018-03-03T07:50:22.618Z,103.12
2018-03-03T07:51:25.860Z,103.60
2018-03-03T07:52:29.089Z,103.30
2018-03-03T07:53:33.084Z,106.82
2018-03-03T07:54:36.283Z,108.78
2018-03-03T07:55:39.528Z,97.80
2018-03-03T07:56:50.461Z,107.90
2018-03-03T07:57:53.686Z,97.05
2018-03-03T07:58:57.836Z,103.07
2018-03-03T08:00:01.902Z,92.88
2018-03-03T08:01:05.102Z,100.53
2018-03-03T08:02:08.327Z,97.78
2018-03-03T08:03:11.569Z,100.80
2018-03-03T08:04:14.878Z,95.28
2018-03-03T08:05:18.120Z,91.80
2018-03-03T08:06:21.344Z,96.72
2018-03-03T08:07:25.385Z,98.20
2018-03-03T08:08:28.705Z,101.30
2018-03-03T08:09:31.955Z,97.45
2018-03-03T08:10:35.153Z,99.93
2018-03-03T08:11:38.373Z,100.20
2018-03-03T08:12:42.748Z,94.35
2018-03-03T08:13:47.476Z,97.15
2018-03-03T08:14:50.689Z,97.28
2018-03-03T08:15:54.673Z,97.72
2018-03-03T08:16:58.656Z,101.55
2018-03-03T08:18:01.914Z,98.97
2018-03-03T08:19:05.125Z,98.68
2018-03-03T08:20:08.345Z,102.93
2018-03-03T08:21:11.590Z,95.55
2018-03-03T08:22:14.819Z,100.45
2018-03-03T08:23:18.113Z,103.75
2018-03-03T08:24:21.391Z,100.30
2018-03-03T08:25:24.627Z,96.47
2018-03-03T08:26:27.889Z,98.28
2018-03-03T08:27:31.849Z,93.72
2018-03-03T08:28:35.078Z,97.93
2018-03-03T08:29:38.300Z,102.95
2018-03-03T08:30:41.557Z,100.75
2018-03-03T08:31:44.786Z,103.32
2018-03-03T08:32:48.076Z,100.47
2018-03-03T08:33:52.194Z,103.78
2018-03-03T08:34:56.317Z,96.22
2018-03-03T08:36:03.249Z,97.53
2018-03-03T08:37:07.281Z,97.45
2018-03-03T08:38:10.577Z,96.55
2018-03-03T08:39:13.955Z,107.63
2018-03-03T08:40:17.497Z,102.28
2018-03-03T08:41:22.409Z,102.40
2018-03-03T08:42:25.778Z,94.68
2018-03-03T08:43:29.291Z,98.32
2018-03-03T08:44:33.406Z,96.57
2018-03-03T08:45:37.433Z,99.35
2018-03-03T08:46:40.664Z,98.47
2018-03-03T08:47:43.904Z,96.30
2018-03-03T08:48:47.362Z,105.05
2018-03-03T08:49:51.543Z,100.20
2018-03-03T08:50:54.896Z,101.22
2018-03-03T08:51:58.299Z,93.68
2018-03-03T08:53:01.697Z,102.70
2018-03-03T08:54:05.900Z,97.95
2018-03-03T08:55:10.509Z,100.30
2018-03-03T08:56:13.784Z,105.65
2018-03-03T08:57:17.129Z,95.40
2018-03-03T08:58:20.366Z,98.60
2018-03-03T08:59:23.750Z,99.72
2018-03-03T09:00:28.539Z,104.35
2018-03-03T09:01:32.016Z,103.10
2018-03-03T09:02:35.302Z,97.55
2018-03-03T09:03:38.700Z,97.45
2018-03-03T09:04:42.067Z,103.28
2018-03-03T09:05:45.403Z,102.68
2018-03-03T09:06:48.705Z,107.12
2018-03-03T09:07:51.988Z,101.60
2018-03-03T09:08:56.020Z,106.35
2018-03-03T09:09:59.319Z,104.93
2018-03-03T09:11:02.757Z,106.10
2018-03-03T09:12:05.990Z,106.60
2018-03-03T09:13:09.205Z,101.72
2018-03-03T09:14:12.469Z,105.45
2018-03-03T09:15:15.722Z,106.12
2018-03-03T09:16:19.055Z,105.93
2018-03-03T09:17:22.401Z,108.10
2018-03-03T09:18:25.747Z,105.32
2018-03-03T09:19:29.777Z,106.15
2018-03-03T09:20:33.047Z,103.25
2018-03-03T09:21:36.324Z,110.07
2018-03-03T09:22:45.325Z,118.10
2018-03-03T09:23:49.337Z,108.37
2018-03-03T09:24:54.053Z,110.45
2018-03-03T09:25:58.047Z,107.93
2018-03-03T09:27:01.258Z,105.68
2018-03-03T09:28:08.030Z,108.53
2018-03-03T09:29:11.279Z,103.15
2018-03-03T09:30:15.309Z,104.90
2018-03-03T09:31:18.577Z,103.15
2018-03-03T09:32:22.677Z,102.00
2018-03-03T09:33:26.667Z,105.65
2018-03-03T09:34:30.666Z,107.93
2018-03-03T09:35:34.696Z,107.45
2018-03-03T09:36:37.919Z,101.65
2018-03-03T09:37:41.229Z,103.30
2018-03-03T09:38:44.519Z,112.28
2018-03-03T09:39:48.534Z,104.00
2018-03-03T09:40:51.843Z,101.53
2018-03-03T09:41:55.121Z,106.82
2018-03-03T09:42:58.353Z,103.10
2018-03-03T09:44:01.643Z,106.35
2018-03-03T09:45:04.870Z,99.10
2018-03-03T09:46:08.085Z,106.45
2018-03-03T09:47:11.310Z,109.75
2018-03-03T09:48:15.364Z,102.68
2018-03-03T09:49:18.613Z,106.78
2018-03-03T09:50:21.851Z,100.57
2018-03-03T09:51:25.974Z,103.32
2018-03-03T09:52:29.236Z,107.45
2018-03-03T09:53:32.509Z,102.85
2018-03-03T09:54:35.738Z,109.43
2018-03-03T09:55:38.980Z,107.80
2018-03-03T09:56:42.251Z,102.15
2018-03-03T09:57:45.556Z,105.07
2018-03-03T09:58:48.780Z,103.50
2018-03-03T09:59:55.762Z,101.60
2018-03-03T10:00:59.055Z,97.25
2018-03-03T10:02:06.291Z,105.57
2018-03-03T10:03:05.600Z,100.12
2018-03-03T10:04:08.882Z,103.10
2018-03-03T10:05:12.910Z,106.45
2018-03-03T10:06:16.189Z,95.60
2018-03-03T10:07:19.572Z,93.62
2018-03-03T10:08:22.828Z,98.15
2018-03-03T10:09:26.856Z,100.32
2018-03-03T10:10:30.833Z,98.07
2018-03-03T10:11:34.835Z,101.82
2018-03-03T10:12:38.837Z,101.72
2018-03-03T10:13:42.836Z,98.62
2018-03-03T10:14:46.089Z,99.60
2018-03-03T10:15:49.321Z,99.20
2018-03-03T10:16:52.566Z,105.95
2018-03-03T10:17:55.795Z,97.32
2018-03-03T10:18:59.049Z,100.28
2018-03-03T10:20:03.399Z,101.00
2018-03-03T10:21:06.640Z,100.05
2018-03-03T10:22:10.621Z,99.22
2018-03-03T10:23:13.875Z,107.47
2018-03-03T10:24:17.104Z,108.40
2018-03-03T10:25:20.344Z,102.12
2018-03-03T10:26:23.608Z,107.82
2018-03-03T10:27:26.806Z,111.55
2018-03-03T10:28:30.786Z,108.07
2018-03-03T10:29:34.043Z,109.53
2018-03-03T10:30:37.326Z,104.50
2018-03-03T10:31:40.553Z,107.43
2018-03-03T10:32:43.771Z,109.93
2018-03-03T10:33:47.005Z,106.20
2018-03-03T10:34:51.029Z,110.20
2018-03-03T10:35:54.298Z,108.47
2018-03-03T10:36:58.329Z,112.55
2018-03-03T10:38:02.329Z,118.05
2018-03-03T10:39:05.581Z,114.25
2018-03-03T10:40:09.591Z,111.03
2018-03-03T10:41:12.800Z,115.53
2018-03-03T10:42:16.045Z,118.03
2018-03-03T10:43:20.038Z,106.78
2018-03-03T10:44:24.033Z,120.18
2018-03-03T10:45:28.048Z,117.82
2018-03-03T10:46:32.079Z,120.32
2018-03-03T10:47:35.313Z,118.62
2018-03-03T10:48:38.540Z,104.18
2018-03-03T10:49:41.906Z,117.78
2018-03-03T10:50:45.168Z,116.60
2018-03-03T10:51:48.341Z,115.47
2018-03-03T10:52:51.588Z,108.43
2018-03-03T10:53:55.171Z,109.63
2018-03-03T10:54:58.495Z,113.62
2018-03-03T10:56:01.833Z,115.10
2018-03-03T10:57:05.096Z,112.82
2018-03-03T10:58:09.220Z,111.53
2018-03-03T10:59:13.113Z,111.85
2018-03-03T11:00:27.991Z,107.95
2018-03-03T11:01:32.056Z,108.68
2018-03-03T11:02:36.088Z,106.90
2018-03-03T11:03:39.302Z,108.93
2018-03-03T11:04:42.534Z,111.78
2018-03-03T11:05:45.812Z,107.63
2018-03-03T11:06:49.845Z,111.93
2018-03-03T11:07:53.086Z,106.40
2018-03-03T11:08:57.088Z,104.93
2018-03-03T11:10:01.097Z,108.40
2018-03-03T11:11:05.274Z,107.37
2018-03-03T11:12:08.500Z,106.28
2018-03-03T11:13:12.114Z,110.05
2018-03-03T11:14:16.186Z,110.25
2018-03-03T11:15:19.384Z,104.05
2018-03-03T11:16:22.624Z,108.25
2018-03-03T11:17:26.646Z,106.90
2018-03-03T11:18:29.864Z,101.95
2018-03-03T11:19:33.119Z,107.07
2018-03-03T11:20:36.419Z,100.30
2018-03-03T11:21:39.676Z,99.93
2018-03-03T11:22:42.885Z,102.10
2018-03-03T11:23:46.131Z,107.40
2018-03-03T11:24:49.347Z,105.53
2018-03-03T11:25:52.592Z,104.10
2018-03-03T11:26:56.607Z,107.30
2018-03-03T11:27:59.840Z,108.43
2018-03-03T11:29:06.840Z,103.07
2018-03-03T11:30:10.856Z,105.43
2018-03-03T11:31:14.075Z,101.32
2018-03-03T11:32:17.323Z,101.30
2018-03-03T11:33:20.603Z,105.10
2018-03-03T11:34:23.842Z,105.63
2018-03-03T11:35:27.082Z,108.97
2018-03-03T11:36:30.306Z,104.57
2018-03-03T11:37:33.532Z,98.62
2018-03-03T11:38:36.766Z,105.80
2018-03-03T11:39:40.005Z,96.07
2018-03-03T11:40:43.229Z,93.30
2018-03-03T11:41:46.451Z,97.00
2018-03-03T11:42:49.744Z,104.68
2018-03-03T11:43:52.972Z,105.20
2018-03-03T11:44:56.196Z,104.55
2018-03-03T11:46:00.204Z,102.05
2018-03-03T11:47:03.421Z,99.47
2018-03-03T11:48:06.645Z,106.60
2018-03-03T11:49:09.900Z,99.87
2018-03-03T11:50:13.147Z,97.00
2018-03-03T11:51:17.179Z,103.20
2018-03-03T11:52:20.411Z,103.10
2018-03-03T11:53:24.446Z,102.28
2018-03-03T11:54:28.422Z,100.07
2018-03-03T11:55:31.665Z,100.53
2018-03-03T11:56:34.879Z,102.40
2018-03-03T11:57:38.892Z,101.22
2018-03-03T11:58:42.104Z,114.88
2018-03-03T11:59:45.361Z,101.43
2018-03-03T12:00:48.565Z,103.25
2018-03-03T12:01:51.804Z,102.78
2018-03-03T12:04:05.206Z,101.78
2018-03-03T12:05:08.442Z,100.45
2018-03-03T12:06:11.695Z,104.55
2018-03-03T12:07:14.914Z,106.00
2018-03-03T12:08:18.191Z,99.93
2018-03-03T12:09:21.485Z,104.97
2018-03-03T12:10:24.727Z,107.30
2018-03-03T12:11:27.947Z,96.93
2018-03-03T12:12:31.172Z,104.60
2018-03-03T12:13:34.485Z,99.47
2018-03-03T12:14:37.786Z,104.47
2018-03-03T12:15:41.022Z,98.97
2018-03-03T12:16:44.243Z,101.32
2018-03-03T12:17:47.510Z,102.38
2018-03-03T12:18:50.741Z,99.00
2018-03-03T12:19:54.753Z,93.70
2018-03-03T12:21:02.636Z,87.85
2018-03-03T12:22:06.039Z,99.43
2018-03-03T12:23:10.098Z,95.68
2018-03-03T12:24:13.309Z,96.07
2018-03-03T12:25:17.339Z,95.30
2018-03-03T12:26:20.591Z,97.07
2018-03-03T12:27:24.635Z,91.22
2018-03-03T12:28:27.909Z,94.32
2018-03-03T12:29:31.192Z,98.05
2018-03-03T12:30:35.231Z,95.05
2018-03-03T12:31:38.547Z,95.15
2018-03-03T12:32:42.561Z,90.68
2018-03-03T12:33:46.584Z,96.50
2018-03-03T12:34:49.811Z,95.25
2018-03-03T12:35:53.048Z,96.15
2018-03-03T12:36:56.252Z,95.55
2018-03-03T12:37:59.461Z,89.53
2018-03-03T12:39:02.697Z,95.03
2018-03-03T12:40:05.929Z,89.22
2018-03-03T12:41:09.158Z,94.85
2018-03-03T12:42:12.379Z,93.50
2018-03-03T12:43:15.597Z,93.45
2018-03-03T12:44:19.576Z,91.35
2018-03-03T12:45:22.804Z,92.93
2018-03-03T12:46:26.027Z,95.60
2018-03-03T12:47:29.245Z,86.53
2018-03-03T12:48:33.241Z,94.60
2018-03-03T12:49:37.290Z,93.78
2018-03-03T12:50:41.525Z,90.35
2018-03-03T12:51:44.737Z,93.82
2018-03-03T12:52:48.731Z,95.87
2018-03-03T12:53:52.786Z,88.05
2018-03-03T12:54:56.032Z,90.55
2018-03-03T12:55:59.243Z,89.18
2018-03-03T12:57:02.481Z,86.60
2018-03-03T12:58:05.704Z,86.15
2018-03-03T12:59:08.933Z,87.53
2018-03-03T13:00:12.153Z,89.78
2018-03-03T13:01:15.408Z,85.65
2018-03-03T13:02:18.632Z,85.72
2018-03-03T13:03:21.874Z,88.82
2018-03-03T13:04:25.093Z,85.60
2018-03-03T13:05:28.308Z,79.47
2018-03-03T13:06:31.521Z,87.37
2018-03-03T13:07:35.528Z,84.28
2018-03-03T13:08:39.500Z,84.57
2018-03-03T13:09:42.957Z,87.03
2018-03-03T13:10:46.188Z,89.22
2018-03-03T13:11:49.405Z,82.97
2018-03-03T13:12:52.618Z,82.03
2018-03-03T13:13:55.851Z,88.47
2018-03-03T13:14:59.849Z,81.68
2018-03-03T13:16:03.057Z,81.37
2018-03-03T13:17:06.358Z,78.80
2018-03-03T13:18:09.633Z,80.47
2018-03-03T13:19:12.891Z,85.78
2018-03-03T13:20:16.864Z,80.22
2018-03-03T13:21:25.730Z,81.25
2018-03-03T13:22:28.966Z,80.65
2018-03-03T13:23:32.206Z,78.18
2018-03-03T13:24:35.470Z,82.60
2018-03-03T13:25:38.701Z,78.70
2018-03-03T13:26:41.975Z,76.10
2018-03-03T13:27:45.410Z,79.25
2018-03-03T13:28:52.862Z,80.30
2018-03-03T13:29:57.116Z,80.53
2018-03-03T13:31:00.373Z,80.80
2018-03-03T13:32:03.578Z,82.72
2018-03-03T13:33:06.812Z,82.10
2018-03-03T13:34:13.771Z,76.78
2018-03-03T13:35:17.189Z,82.07
2018-03-03T13:36:20.583Z,77.37
2018-03-03T13:37:24.568Z,71.85